Time;durP1;ratioP1;P1;durP2;ratioP2;P2;SDS_P1;SDS_P2;PMS_P1;PMS_P2;Temp;Humidity;BMP_temperature;BMP_pressure;BME280_temperature;BME280_humidity;BME280_pressure;Samples;Min_cycle;Max_cycle;Signal;HPM_P1;HPM_P2
2023/03/23 00:00:14;;;;;;;0.87;0.50;;;12.70;93.10;;;;;;5075058;28;20491;-81
2023/03/23 00:02:40;;;;;;;0.40;0.40;;;12.70;92.60;;;;;;5075024;28;20526;-81
2023/03/23 00:05:08;;;;;;;0.40;0.40;;;12.70;93.20;;;;;;5074600;28;20460;-81
2023/03/23 00:07:35;;;;;;;0.40;0.40;;;12.70;93.70;;;;;;5074934;28;20457;-81
2023/03/23 00:10:03;;;;;;;0.40;0.37;;;12.70;93.20;;;;;;5074787;28;20509;-81
2023/03/23 00:12:33;;;;;;;0.57;0.57;;;12.70;92.90;;;;;;5074894;28;20510;-82
2023/03/23 00:15:04;;;;;;;0.40;0.40;;;12.70;93.70;;;;;;5074877;28;20415;-81
2023/03/23 00:17:32;;;;;;;1.13;0.50;;;12.70;94.00;;;;;;5074531;28;20414;-82
2023/03/23 00:20:00;;;;;;;0.60;0.50;;;12.70;94.00;;;;;;5074659;28;20469;-82
2023/03/23 00:22:29;;;;;;;0.70;0.50;;;12.60;94.20;;;;;;5074897;28;20456;-82
2023/03/23 00:24:56;;;;;;;0.40;0.40;;;12.60;93.70;;;;;;5074349;28;20520;-82
2023/03/23 00:27:24;;;;;;;0.60;0.40;;;12.60;93.80;;;;;;5074546;28;20478;-82
2023/03/23 00:29:52;;;;;;;1.80;0.50;;;12.60;93.60;;;;;;5074498;28;20471;-81
2023/03/23 00:32:28;;;;;;;0.70;0.57;;;12.60;93.30;;;;;;5074247;28;20434;-81
2023/03/23 00:34:55;;;;;;;0.50;0.40;;;12.60;93.40;;;;;;5074690;28;20456;-81
2023/03/23 00:37:22;;;;;;;0.93;0.43;;;12.60;93.20;;;;;;5074057;28;20933;-81
2023/03/23 00:39:51;;;;;;;0.50;0.50;;;12.50;93.40;;;;;;5073956;28;20476;-81
2023/03/23 00:42:19;;;;;;;0.50;0.50;;;12.50;93.40;;;;;;5074235;28;20453;-81
2023/03/23 00:44:45;;;;;;;0.50;0.50;;;12.50;93.40;;;;;;5073952;28;20430;-81
2023/03/23 00:47:15;;;;;;;0.40;0.40;;;12.50;93.20;;;;;;5074145;28;20484;-82
2023/03/23 00:49:43;;;;;;;0.80;0.80;;;12.50;93.60;;;;;;5073689;28;20482;-82
2023/03/23 00:52:11;;;;;;;0.70;0.50;;;12.50;93.40;;;;;;5074104;28;20449;-82
2023/03/23 00:54:38;;;;;;;0.80;0.63;;;12.50;93.40;;;;;;5074039;28;20507;-82
2023/03/23 00:57:06;;;;;;;0.90;0.53;;;12.50;93.40;;;;;;5073680;28;20953;-82
2023/03/23 00:59:32;;;;;;;0.70;0.40;;;12.50;93.10;;;;;;5073862;28;20518;-82
2023/03/23 01:01:59;;;;;;;5.00;0.60;;;12.50;93.40;;;;;;5073755;28;20458;-81
2023/03/23 01:04:28;;;;;;;0.50;0.50;;;12.40;93.20;;;;;;5073865;28;20449;-81
2023/03/23 01:06:56;;;;;;;0.63;0.63;;;12.40;92.80;;;;;;5074321;28;20542;-82
2023/03/23 01:09:23;;;;;;;0.70;0.60;;;12.40;93.00;;;;;;5073397;28;20481;-82
2023/03/23 01:11:52;;;;;;;0.43;0.40;;;12.30;93.20;;;;;;5073775;28;20460;-82
2023/03/23 01:14:20;;;;;;;0.40;0.40;;;12.40;93.30;;;;;;5073680;28;20444;-81
2023/03/23 01:16:47;;;;;;;1.93;0.60;;;12.40;93.10;;;;;;5073563;28;20438;-81
2023/03/23 01:19:15;;;;;;;1.07;0.70;;;12.40;92.80;;;;;;5073592;28;20477;-81
2023/03/23 01:21:42;;;;;;;0.50;0.50;;;12.40;92.80;;;;;;5073618;28;20441;-81
2023/03/23 01:24:10;;;;;;;0.50;0.47;;;12.40;92.90;;;;;;5073297;28;20442;-81
2023/03/23 01:26:37;;;;;;;1.40;0.73;;;12.30;93.10;;;;;;5073437;28;20569;-81
2023/03/23 01:29:04;;;;;;;0.70;0.60;;;12.30;93.90;;;;;;5073178;28;20470;-82
2023/03/23 01:31:30;;;;;;;0.60;0.60;;;12.30;94.10;;;;;;5073948;28;20453;-81
2023/03/23 01:33:57;;;;;;;0.50;0.50;;;12.30;93.30;;;;;;5073729;28;20461;-81
2023/03/23 01:36:26;;;;;;;1.07;0.87;;;12.40;93.00;;;;;;5073595;28;20441;-82
2023/03/23 01:38:53;;;;;;;0.70;0.70;;;12.40;93.00;;;;;;5073322;28;20477;-82
2023/03/23 01:41:22;;;;;;;0.80;0.80;;;12.40;93.30;;;;;;5073355;28;20472;-81
2023/03/23 01:43:58;;;;;;;1.50;0.80;;;12.40;93.00;;;;;;5073086;28;20442;-81
2023/03/23 01:46:27;;;;;;;0.70;0.60;;;12.40;93.30;;;;;;5073311;28;20473;-82
2023/03/23 01:48:56;;;;;;;3.07;0.80;;;12.40;93.30;;;;;;5072927;28;20485;-82
2023/03/23 01:51:23;;;;;;;1.70;0.73;;;12.40;94.00;;;;;;5073271;28;20451;-81
2023/03/23 01:53:53;;;;;;;0.50;0.50;;;12.30;94.00;;;;;;5073230;28;20818;-82
2023/03/23 01:56:25;;;;;;;0.47;0.40;;;12.30;93.80;;;;;;5073499;28;20442;-82
2023/03/23 01:58:53;;;;;;;0.83;0.60;;;12.30;93.60;;;;;;5073182;28;20470;-81
2023/03/23 02:01:24;;;;;;;2.40;0.50;;;12.30;94.00;;;;;;5073185;28;20454;-81
2023/03/23 02:03:53;;;;;;;2.43;0.90;;;12.30;94.30;;;;;;5073186;28;20437;-81
2023/03/23 02:06:20;;;;;;;0.40;0.30;;;12.30;94.80;;;;;;5073053;28;20481;-81
2023/03/23 02:08:50;;;;;;;0.50;0.50;;;12.30;94.60;;;;;;5073032;28;20477;-81
2023/03/23 02:11:18;;;;;;;0.80;0.50;;;12.30;94.90;;;;;;5073155;28;20441;-82
2023/03/23 02:13:47;;;;;;;0.90;0.40;;;12.40;95.40;;;;;;5073027;28;20449;-82
2023/03/23 02:16:25;;;;;;;1.00;0.70;;;12.30;95.00;;;;;;5072820;28;20474;-81
2023/03/23 02:18:58;;;;;;;0.67;0.43;;;12.30;95.00;;;;;;5073040;28;20547;-82
2023/03/23 02:21:59;;;;;;;1.27;0.50;;;12.40;95.30;;;;;;5073080;28;20437;-82
2023/03/23 02:24:55;;;;;;;1.47;0.40;;;12.40;95.30;;;;;;5072999;28;20521;-82
2023/03/23 02:27:41;;;;;;;0.57;0.50;;;12.40;95.30;;;;;;5062384;28;20488;-82
2023/03/23 02:30:20;;;;;;;0.50;0.50;;;12.30;95.60;;;;;;5072886;28;20473;-82
2023/03/23 02:33:12;;;;;;;1.03;0.60;;;12.30;95.70;;;;;;5072596;28;20802;-81
2023/03/23 02:35:42;;;;;;;0.40;0.40;;;12.30;95.50;;;;;;5072686;28;20864;-81
2023/03/23 02:38:14;;;;;;;1.73;0.57;;;12.30;95.50;;;;;;5073042;28;20441;-81
2023/03/23 02:40:43;;;;;;;0.77;0.47;;;12.30;95.70;;;;;;5073097;28;20807;-81
2023/03/23 02:43:14;;;;;;;0.40;0.40;;;12.20;95.90;;;;;;5076552;28;20469;-81
2023/03/23 02:45:42;;;;;;;0.60;0.60;;;12.20;95.70;;;;;;5076466;28;20457;-82
2023/03/23 02:48:14;;;;;;;0.40;0.40;;;12.20;95.50;;;;;;5075994;28;20483;-82
2023/03/23 02:50:44;;;;;;;0.77;0.40;;;12.20;95.60;;;;;;5075998;28;20503;-82
2023/03/23 02:53:16;;;;;;;0.40;0.40;;;12.10;95.90;;;;;;5076407;28;20433;-81
2023/03/23 02:55:45;;;;;;;2.13;0.90;;;12.10;95.90;;;;;;5076077;28;20437;-81
2023/03/23 02:58:12;;;;;;;3.63;0.60;;;12.10;95.70;;;;;;5075941;28;20967;-81
2023/03/23 03:00:40;;;;;;;0.63;0.47;;;12.10;95.90;;;;;;5075911;28;20449;-81
2023/03/23 03:03:12;;;;;;;0.50;0.50;;;12.10;96.00;;;;;;5076073;28;20440;-81
2023/03/23 03:05:45;;;;;;;0.93;0.60;;;12.10;96.30;;;;;;5076226;28;20418;-81
2023/03/23 03:08:19;;;;;;;0.40;0.40;;;12.20;96.10;;;;;;5075719;28;20969;-81
2023/03/23 03:10:52;;;;;;;0.50;0.50;;;12.20;96.00;;;;;;5075816;28;20936;-81
2023/03/23 03:13:31;;;;;;;0.60;0.50;;;12.30;95.80;;;;;;5076000;28;20434;-81
2023/03/23 03:16:03;;;;;;;0.50;0.50;;;12.20;96.00;;;;;;5075782;28;20406;-81
2023/03/23 03:18:33;;;;;;;0.50;0.47;;;12.20;96.20;;;;;;5075654;28;20825;-81
2023/03/23 03:21:05;;;;;;;0.97;0.30;;;12.20;96.40;;;;;;5075931;28;20441;-82
2023/03/23 03:23:34;;;;;;;6.00;0.80;;;12.30;96.10;;;;;;5075868;28;20436;-82
2023/03/23 03:26:04;;;;;;;0.47;0.47;;;12.40;96.30;;;;;;5075720;28;20441;-82
2023/03/23 03:28:33;;;;;;;0.70;0.40;;;12.30;96.40;;;;;;5075372;28;20568;-82
2023/03/23 03:31:03;;;;;;;0.80;0.50;;;12.30;96.80;;;;;;5075671;28;20448;-81
2023/03/23 03:33:33;;;;;;;2.77;0.57;;;12.30;96.50;;;;;;5075637;28;20448;-81
2023/03/23 03:36:04;;;;;;;2.30;0.70;;;12.30;96.50;;;;;;5075599;28;20544;-81
2023/03/23 03:38:41;;;;;;;0.83;0.67;;;12.40;96.50;;;;;;5075500;28;20473;-81
2023/03/23 03:41:08;;;;;;;0.50;0.40;;;12.30;96.50;;;;;;5075222;28;20917;-81
2023/03/23 03:43:35;;;;;;;1.47;0.50;;;12.30;96.70;;;;;;5075123;28;20945;-81
2023/03/23 03:46:01;;;;;;;0.50;0.50;;;12.40;97.20;;;;;;5075440;28;20571;-81
2023/03/23 03:48:28;;;;;;;0.83;0.50;;;12.30;97.50;;;;;;5075002;28;20485;-81
2023/03/23 03:50:56;;;;;;;0.30;0.30;;;12.30;97.70;;;;;;5075350;28;20434;-81
2023/03/23 03:53:25;;;;;;;0.47;0.47;;;12.30;97.60;;;;;;5074904;28;20457;-82
2023/03/23 03:55:55;;;;;;;1.80;0.73;;;12.40;97.70;;;;;;5075217;28;20449;-82
2023/03/23 03:58:22;;;;;;;0.50;0.50;;;12.30;97.60;;;;;;5075075;28;20461;-82
2023/03/23 04:00:49;;;;;;;0.40;0.40;;;12.30;98.30;;;;;;5075134;28;20813;-81
2023/03/23 04:03:16;;;;;;;0.60;0.50;;;12.30;98.20;;;;;;5075080;28;20448;-83
2023/03/23 04:05:44;;;;;;;1.40;0.43;;;12.30;98.30;;;;;;5075006;28;20457;-83
2023/03/23 04:08:11;;;;;;;0.40;0.40;;;12.30;98.00;;;;;;5074856;28;20854;-84
2023/03/23 04:10:39;;;;;;;6.63;0.57;;;12.40;98.10;;;;;;5074918;28;20452;-84
2023/03/23 04:13:06;;;;;;;0.60;0.40;;;12.30;98.10;;;;;;5074896;28;20454;-84
2023/03/23 04:15:32;;;;;;;0.97;0.57;;;12.30;98.50;;;;;;5074833;28;20539;-83
2023/03/23 04:17:59;;;;;;;0.80;0.60;;;12.30;98.80;;;;;;5074428;28;20437;-84
2023/03/23 04:20:26;;;;;;;0.70;0.50;;;12.30;98.70;;;;;;5074726;28;20449;-83
2023/03/23 04:22:54;;;;;;;0.50;0.50;;;12.30;99.10;;;;;;5074686;28;20449;-83
2023/03/23 04:25:22;;;;;;;1.03;0.40;;;12.40;99.20;;;;;;5074296;28;20972;-84
2023/03/23 04:27:53;;;;;;;0.57;0.57;;;12.40;99.40;;;;;;5074200;28;21046;-83
2023/03/23 04:30:21;;;;;;;0.60;0.40;;;12.30;99.20;;;;;;5074221;28;20516;-84
2023/03/23 04:32:50;;;;;;;0.50;0.50;;;12.40;99.30;;;;;;5074110;28;20998;-84
2023/03/23 04:35:18;;;;;;;0.70;0.60;;;12.50;98.60;;;;;;5074143;28;20445;-84
2023/03/23 04:37:45;;;;;;;0.50;0.50;;;12.50;98.50;;;;;;5074043;28;20947;-84
2023/03/23 04:40:14;;;;;;;0.80;0.70;;;12.50;98.50;;;;;;5073928;28;20465;-84
2023/03/23 04:42:45;;;;;;;0.70;0.57;;;12.40;98.30;;;;;;5074252;28;20453;-84
2023/03/23 04:45:15;;;;;;;0.70;0.50;;;12.50;98.50;;;;;;5074309;28;20802;-83
2023/03/23 04:47:49;;;;;;;0.80;0.57;;;12.40;98.40;;;;;;5073873;28;20519;-83
2023/03/23 04:50:17;;;;;;;0.90;0.60;;;12.50;98.50;;;;;;5073637;28;20477;-84
2023/03/23 04:52:44;;;;;;;0.40;0.40;;;12.40;98.40;;;;;;5074587;28;20489;-84
2023/03/23 04:55:11;;;;;;;0.47;0.47;;;12.40;98.50;;;;;;5074020;28;20476;-83
2023/03/23 04:57:38;;;;;;;0.90;0.50;;;12.40;99.00;;;;;;5074018;28;20445;-84
2023/03/23 05:00:08;;;;;;;0.43;0.40;;;12.40;98.70;;;;;;5073736;28;20840;-84
2023/03/23 05:02:39;;;;;;;1.00;0.90;;;12.40;98.90;;;;;;5073701;28;20438;-84
2023/03/23 05:05:06;;;;;;;0.67;0.67;;;12.50;98.50;;;;;;5073207;28;20464;-83
2023/03/23 05:07:33;;;;;;;1.23;0.80;;;12.50;98.80;;;;;;5073780;28;20508;-84
2023/03/23 05:10:00;;;;;;;0.50;0.50;;;12.50;98.70;;;;;;5073749;28;20465;-84
2023/03/23 05:12:27;;;;;;;0.60;0.50;;;12.60;98.80;;;;;;5073758;28;20461;-83
2023/03/23 05:14:53;;;;;;;0.70;0.70;;;12.60;98.70;;;;;;5073524;28;20429;-84
2023/03/23 05:17:20;;;;;;;0.70;0.40;;;12.50;98.90;;;;;;5073660;28;20453;-84
2023/03/23 05:19:48;;;;;;;0.70;0.50;;;12.50;99.00;;;;;;5073618;28;20461;-84
2023/03/23 05:22:15;;;;;;;0.43;0.40;;;12.50;99.10;;;;;;5073611;28;20799;-84
2023/03/23 05:24:42;;;;;;;0.50;0.50;;;12.50;98.90;;;;;;5073587;28;20445;-82
2023/03/23 05:27:09;;;;;;;1.33;0.50;;;12.50;98.60;;;;;;5073477;28;20488;-81
2023/03/23 05:29:36;;;;;;;0.63;0.50;;;12.60;98.50;;;;;;5073589;28;20981;-81
2023/03/23 05:32:05;;;;;;;0.50;0.50;;;12.60;98.40;;;;;;5073212;28;21002;-81
2023/03/23 05:34:33;;;;;;;0.50;0.50;;;12.60;99.30;;;;;;5073314;28;20552;-81
2023/03/23 05:37:02;;;;;;;0.80;0.40;;;12.60;98.40;;;;;;5073611;28;20442;-82
2023/03/23 05:39:30;;;;;;;0.50;0.33;;;12.60;98.50;;;;;;5073281;28;20524;-81
2023/03/23 05:41:58;;;;;;;3.57;0.53;;;12.60;98.50;;;;;;5073382;28;20818;-81
2023/03/23 05:44:25;;;;;;;0.40;0.40;;;12.70;98.40;;;;;;5073559;28;20913;-81
2023/03/23 05:46:51;;;;;;;1.03;0.63;;;12.70;98.50;;;;;;5073251;28;20460;-81
2023/03/23 05:49:18;;;;;;;1.17;0.60;;;12.70;98.00;;;;;;5072855;28;20500;-81
2023/03/23 05:51:46;;;;;;;1.00;0.70;;;12.70;98.40;;;;;;5073328;28;20445;-81
2023/03/23 05:54:15;;;;;;;0.80;0.60;;;12.70;98.80;;;;;;5072963;28;21020;-81
2023/03/23 05:56:42;;;;;;;1.00;0.67;;;12.70;98.70;;;;;;5073166;28;20449;-81
2023/03/23 05:59:10;;;;;;;0.77;0.77;;;12.80;98.70;;;;;;5073149;28;20470;-81
2023/03/23 06:01:37;;;;;;;1.07;0.50;;;12.80;98.40;;;;;;5073218;28;20449;-81
2023/03/23 06:04:04;;;;;;;0.40;0.40;;;12.90;98.40;;;;;;5073227;28;20452;-81
2023/03/23 06:06:32;;;;;;;0.90;0.63;;;12.90;98.10;;;;;;5072948;28;20817;-81
2023/03/23 06:08:59;;;;;;;1.30;0.50;;;12.90;98.50;;;;;;5072962;28;20524;-81
2023/03/23 06:11:27;;;;;;;1.50;0.53;;;13.00;98.40;;;;;;5072818;28;20507;-82
2023/03/23 06:13:54;;;;;;;0.40;0.40;;;13.00;98.40;;;;;;5073102;28;20453;-82
2023/03/23 06:16:21;;;;;;;0.60;0.60;;;13.10;98.90;;;;;;5076030;28;20449;-81
2023/03/23 06:18:48;;;;;;;0.50;0.50;;;13.10;99.20;;;;;;5076954;28;20495;-81
2023/03/23 06:21:15;;;;;;;0.40;0.40;;;13.20;98.90;;;;;;5077010;28;20453;-81
2023/03/23 06:23:41;;;;;;;0.50;0.50;;;13.30;99.10;;;;;;5076944;28;20448;-81
2023/03/23 06:26:10;;;;;;;0.70;0.70;;;13.30;99.20;;;;;;5077056;28;20453;-81
2023/03/23 06:28:39;;;;;;;1.27;0.57;;;13.30;98.70;;;;;;5076698;28;20496;-81
2023/03/23 06:31:07;;;;;;;0.40;0.40;;;13.30;98.40;;;;;;5076813;28;20464;-81
2023/03/23 06:33:35;;;;;;;0.57;0.57;;;13.30;98.60;;;;;;5076473;28;20925;-81
2023/03/23 06:36:03;;;;;;;0.40;0.40;;;13.30;98.60;;;;;;5076655;28;20437;-81
2023/03/23 06:38:30;;;;;;;0.63;0.43;;;13.30;98.70;;;;;;5076923;28;20470;-81
2023/03/23 06:40:56;;;;;;;0.53;0.53;;;13.30;98.70;;;;;;5076626;28;20458;-81
2023/03/23 06:43:24;;;;;;;0.60;0.60;;;13.30;99.10;;;;;;5076570;28;20453;-81
2023/03/23 06:45:52;;;;;;;0.50;0.50;;;13.30;98.60;;;;;;5076259;28;20446;-81
2023/03/23 06:48:19;;;;;;;1.67;0.60;;;13.30;98.60;;;;;;5075895;28;20854;-81
2023/03/23 06:50:46;;;;;;;0.60;0.50;;;13.40;98.90;;;;;;5076427;28;20528;-81
2023/03/23 06:53:14;;;;;;;0.67;0.47;;;13.50;99.10;;;;;;5076302;28;20440;-81
2023/03/23 06:55:43;;;;;;;0.70;0.60;;;13.60;98.90;;;;;;5076338;28;20445;-81
2023/03/23 06:58:11;;;;;;;0.83;0.63;;;13.70;98.60;;;;;;5076245;28;20472;-81
2023/03/23 07:00:38;;;;;;;0.50;0.50;;;13.80;98.70;;;;;;5076279;28;20453;-82
2023/03/23 07:03:06;;;;;;;1.87;0.80;;;13.90;98.00;;;;;;5076131;28;20452;-81
2023/03/23 07:05:34;;;;;;;0.40;0.40;;;14.00;98.20;;;;;;5076161;28;20449;-81
2023/03/23 07:08:01;;;;;;;4.80;0.90;;;14.00;98.20;;;;;;5075973;28;20469;-81
2023/03/23 07:10:28;;;;;;;0.87;0.53;;;13.90;98.00;;;;;;5075865;28;20430;-81
2023/03/23 07:12:55;;;;;;;0.70;0.53;;;13.90;98.00;;;;;;5076068;28;20499;-81
2023/03/23 07:15:21;;;;;;;1.07;0.97;;;13.90;98.00;;;;;;5075735;28;20960;-81
2023/03/23 07:17:49;;;;;;;0.50;0.50;;;13.90;97.60;;;;;;5075616;28;20949;-81
2023/03/23 07:20:17;;;;;;;0.53;0.53;;;13.90;97.90;;;;;;5075844;28;20460;-82
2023/03/23 07:22:44;;;;;;;0.60;0.60;;;13.90;98.40;;;;;;5075824;28;20445;-82
2023/03/23 07:25:11;;;;;;;0.70;0.60;;;13.80;98.10;;;;;;5075834;28;20460;-81
2023/03/23 07:27:38;;;;;;;0.67;0.50;;;13.80;98.30;;;;;;5074986;28;20547;-81
2023/03/23 07:30:07;;;;;;;0.60;0.60;;;13.80;98.60;;;;;;5077936;28;20453;-81
2023/03/23 07:32:34;;;;;;;1.23;0.73;;;13.70;98.60;;;;;;5077637;28;20885;-81
2023/03/23 07:35:01;;;;;;;0.50;0.47;;;13.70;99.30;;;;;;5075690;28;20471;-82
2023/03/23 07:37:29;;;;;;;0.83;0.60;;;13.70;99.20;;;;;;5077021;28;20453;-81
2023/03/23 07:39:56;;;;;;;0.90;0.50;;;13.70;99.80;;;;;;5077049;28;21008;-81
2023/03/23 07:42:23;;;;;;;0.80;0.50;;;13.80;99.40;;;;;;5077796;28;20438;-81
2023/03/23 07:44:50;;;;;;;0.70;0.60;;;13.80;99.50;;;;;;5076849;28;20449;-82
2023/03/23 07:47:17;;;;;;;0.50;0.40;;;13.90;99.50;;;;;;5076634;28;20421;-82
2023/03/23 07:49:44;;;;;;;0.60;0.50;;;13.90;99.50;;;;;;5075969;28;20539;-82
2023/03/23 07:52:12;;;;;;;0.80;0.60;;;14.10;99.90;;;;;;5076519;28;20452;-82
2023/03/23 07:54:41;;;;;;;0.73;0.57;;;14.30;99.90;;;;;;5076244;28;20902;-82
2023/03/23 07:57:08;;;;;;;1.20;1.17;;;14.50;99.70;;;;;;5076500;28;20540;-82
2023/03/23 07:59:35;;;;;;;1.90;0.57;;;14.70;99.70;;;;;;5076178;28;20507;-82
2023/03/23 08:02:01;;;;;;;0.80;0.60;;;14.80;99.60;;;;;;5076231;28;20442;-82
2023/03/23 08:04:29;;;;;;;1.80;0.73;;;14.90;99.20;;;;;;5075605;28;20603;-82
2023/03/23 08:06:56;;;;;;;1.60;0.60;;;15.10;99.10;;;;;;5075463;28;20543;-82
2023/03/23 08:09:22;;;;;;;0.60;0.50;;;15.10;99.20;;;;;;5074857;28;20485;-82
2023/03/23 08:11:51;;;;;;;1.13;0.70;;;15.10;99.40;;;;;;5075050;28;20454;-82
2023/03/23 08:14:18;;;;;;;0.60;0.60;;;15.00;99.80;;;;;;5075523;28;20449;-82
2023/03/23 08:16:45;;;;;;;0.73;0.57;;;15.00;99.90;;;;;;5075286;28;20449;-82
2023/03/23 08:19:12;;;;;;;0.77;0.57;;;15.10;99.90;;;;;;5075508;28;20544;-83
2023/03/23 08:21:38;;;;;;;0.50;0.50;;;15.30;99.90;;;;;;5075111;28;20798;-82
2023/03/23 08:24:06;;;;;;;0.80;0.70;;;15.50;99.80;;;;;;5074848;28;20449;-83
2023/03/23 08:26:33;;;;;;;0.87;0.50;;;15.70;99.90;;;;;;5075463;28;20454;-82
2023/03/23 08:29:01;;;;;;;1.50;0.77;;;15.90;99.90;;;;;;5074615;28;20492;-82
2023/03/23 08:31:27;;;;;;;1.40;0.70;;;16.00;99.30;;;;;;5074529;28;20441;-83
2023/03/23 08:33:56;;;;;;;0.90;0.80;;;16.00;99.00;;;;;;5075144;28;20457;-83
2023/03/23 08:36:23;;;;;;;0.50;0.50;;;16.00;99.30;;;;;;5074985;28;20831;-83
2023/03/23 08:38:51;;;;;;;1.50;0.80;;;15.90;99.70;;;;;;5073645;28;20969;-83
2023/03/23 08:41:18;;;;;;;0.60;0.60;;;15.80;99.70;;;;;;5075728;28;20442;-82
2023/03/23 08:43:44;;;;;;;0.80;0.60;;;15.60;99.80;;;;;;5074515;28;20549;-82
2023/03/23 08:46:13;;;;;;;0.60;0.60;;;15.50;99.90;;;;;;5075687;28;20464;-83
2023/03/23 08:48:40;;;;;;;0.63;0.63;;;15.50;99.90;;;;;;5075359;28;20485;-83
2023/03/23 08:51:08;;;;;;;1.07;0.60;;;15.60;99.90;;;;;;5075704;28;20900;-83
2023/03/23 08:53:36;;;;;;;0.77;0.77;;;15.60;99.90;;;;;;5075314;28;20461;-84
2023/03/23 08:56:07;;;;;;;0.50;0.50;;;15.70;99.90;;;;;;5075746;28;21019;-83
2023/03/23 08:58:34;;;;;;;0.87;0.70;;;15.70;99.90;;;;;;5076644;28;20466;-83
2023/03/23 09:01:01;;;;;;;0.60;0.60;;;15.70;99.90;;;;;;5077727;28;20447;-83
2023/03/23 09:03:30;;;;;;;0.67;0.50;;;15.70;99.90;;;;;;5077498;28;20454;-84
2023/03/23 09:06:01;;;;;;;0.60;0.57;;;15.80;99.90;;;;;;5077443;28;20457;-84
2023/03/23 09:08:28;;;;;;;3.03;0.70;;;15.80;99.90;;;;;;5077494;28;20488;-83
2023/03/23 09:10:56;;;;;;;0.90;0.47;;;15.80;99.90;;;;;;5077789;28;20450;-83
2023/03/23 09:13:23;;;;;;;0.70;0.70;;;16.00;99.90;;;;;;5077394;28;20438;-84
2023/03/23 09:15:50;;;;;;;0.53;0.53;;;16.20;99.90;;;;;;5077322;28;20823;-84
2023/03/23 09:18:18;;;;;;;0.50;0.40;;;16.40;99.90;;;;;;5077308;28;20469;-84
2023/03/23 09:20:46;;;;;;;3.57;0.70;;;16.50;99.80;;;;;;5077425;28;20430;-83
2023/03/23 09:23:15;;;;;;;1.67;0.57;;;16.60;99.90;;;;;;5077332;28;20445;-84
2023/03/23 09:25:41;;;;;;;0.50;0.50;;;16.80;99.90;;;;;;5077176;28;20470;-84
2023/03/23 09:28:09;;;;;;;0.60;0.50;;;17.00;99.50;;;;;;5074318;28;20461;-84
2023/03/23 09:30:37;;;;;;;0.50;0.50;;;17.20;99.00;;;;;;5073812;28;20772;-84
2023/03/23 09:33:05;;;;;;;1.27;0.60;;;17.10;98.90;;;;;;5073677;28;20442;-84
2023/03/23 09:35:34;;;;;;;1.07;0.50;;;17.10;99.80;;;;;;5073328;28;20964;-84
2023/03/23 09:38:03;;;;;;;0.50;0.50;;;16.90;99.50;;;;;;5073417;28;20477;-84
2023/03/23 09:40:40;;;;;;;0.60;0.60;;;16.80;99.30;;;;;;5073487;28;20456;-84
2023/03/23 09:43:21;;;;;;;0.60;0.60;;;16.60;99.90;;;;;;5073510;28;20452;-83
2023/03/23 09:45:57;;;;;;;1.00;0.60;;;16.50;99.70;;;;;;5073233;28;20434;-84
2023/03/23 09:48:42;;;;;;;1.23;0.70;;;16.40;99.90;;;;;;5073295;28;20540;-84
2023/03/23 09:51:18;;;;;;;0.90;0.63;;;16.40;99.80;;;;;;5073075;28;20492;-84
2023/03/23 09:53:51;;;;;;;0.90;0.80;;;16.30;99.80;;;;;;5073604;28;20436;-84
2023/03/23 09:56:20;;;;;;;0.90;0.57;;;16.40;99.70;;;;;;5073183;28;20430;-84
2023/03/23 09:58:51;;;;;;;0.93;0.40;;;16.40;99.90;;;;;;5073423;28;20519;-84
2023/03/23 10:01:23;;;;;;;1.50;1.00;;;16.70;99.90;;;;;;5073439;28;20475;-84
2023/03/23 10:03:53;;;;;;;3.37;0.80;;;17.00;99.90;;;;;;5073088;28;20938;-83
2023/03/23 10:06:20;;;;;;;2.33;0.53;;;17.50;99.80;;;;;;5073011;28;20430;-84
2023/03/23 10:08:51;;;;;;;0.50;0.50;;;18.00;98.80;;;;;;5073266;28;20489;-84
2023/03/23 10:11:29;;;;;;;0.50;0.50;;;18.70;98.00;;;;;;5073318;28;20444;-84
2023/03/23 10:14:07;;;;;;;1.70;0.70;;;19.40;96.80;;;;;;5073008;28;20441;-84
2023/03/23 10:16:38;;;;;;;0.53;0.50;;;19.60;96.00;;;;;;5072949;28;20913;-84
2023/03/23 10:19:12;;;;;;;0.80;0.63;;;19.50;95.90;;;;;;5073085;28;20461;-84
2023/03/23 10:21:42;;;;;;;0.93;0.90;;;19.20;96.10;;;;;;5072882;28;20909;-84
2023/03/23 10:24:14;;;;;;;0.80;0.70;;;18.90;96.50;;;;;;5073450;28;20442;-84
2023/03/23 10:26:49;;;;;;;1.17;0.70;;;18.90;96.80;;;;;;5073152;28;20469;-84
2023/03/23 10:29:20;;;;;;;0.80;0.60;;;18.90;97.50;;;;;;5072861;28;20491;-84
2023/03/23 10:31:51;;;;;;;0.80;0.80;;;18.80;96.70;;;;;;5073279;28;20441;-84
2023/03/23 10:34:21;;;;;;;0.70;0.70;;;18.60;96.80;;;;;;5072901;28;20460;-84
2023/03/23 10:37:01;;;;;;;0.77;0.70;;;18.70;97.30;;;;;;5072979;28;20441;-83
2023/03/23 10:39:34;;;;;;;1.17;0.70;;;19.10;97.30;;;;;;5077764;28;21063;-84
2023/03/23 10:42:06;;;;;;;0.50;0.50;;;19.70;96.80;;;;;;5076341;28;20906;-84
2023/03/23 10:44:34;;;;;;;0.77;0.60;;;20.30;95.90;;;;;;5076009;28;20499;-84
2023/03/23 10:47:04;;;;;;;0.50;0.50;;;21.20;95.30;;;;;;5076524;28;20452;-84
2023/03/23 10:49:36;;;;;;;1.10;0.60;;;22.40;93.60;;;;;;5075973;28;20495;-84
2023/03/23 10:52:11;;;;;;;1.23;0.60;;;23.00;91.00;;;;;;5077065;28;20440;-84
2023/03/23 10:54:47;;;;;;;0.93;0.90;;;22.80;90.20;;;;;;5076825;28;20423;-84
2023/03/23 10:57:23;;;;;;;0.60;0.50;;;22.30;90.70;;;;;;5076965;28;20437;-84
2023/03/23 10:59:49;;;;;;;0.60;0.60;;;21.70;91.20;;;;;;5078543;28;20455;-84
2023/03/23 11:02:19;;;;;;;1.50;0.83;;;21.30;92.00;;;;;;5076977;28;20466;-84
2023/03/23 11:04:58;;;;;;;1.13;0.83;;;20.60;91.30;;;;;;5078372;28;20445;-81
2023/03/23 11:07:29;;;;;;;0.90;0.67;;;19.90;92.30;;;;;;5076559;28;20451;-82
2023/03/23 11:10:04;;;;;;;2.10;0.90;;;19.50;93.30;;;;;;5076734;28;20485;-84
2023/03/23 11:12:34;;;;;;;1.27;0.70;;;19.40;93.80;;;;;;5077547;28;20901;-83
2023/03/23 11:15:17;;;;;;;1.03;0.60;;;19.30;94.80;;;;;;5080491;28;20940;-85
2023/03/23 11:17:44;;;;;;;1.40;0.53;;;19.10;94.40;;;;;;5077322;28;20523;-82
2023/03/23 11:20:12;;;;;;;1.10;0.70;;;19.10;94.40;;;;;;5077092;28;20495;-82
2023/03/23 11:22:39;;;;;;;0.60;0.60;;;19.00;95.00;;;;;;5076205;28;20453;-83
2023/03/23 11:25:10;;;;;;;0.53;0.53;;;18.80;95.30;;;;;;5076519;28;20449;-85
2023/03/23 11:27:40;;;;;;;0.77;0.53;;;18.80;95.30;;;;;;5076966;28;20457;-85
2023/03/23 11:30:12;;;;;;;0.80;0.80;;;18.70;95.60;;;;;;5075865;28;20992;-85
2023/03/23 11:32:43;;;;;;;0.80;0.60;;;18.60;94.90;;;;;;5076293;28;20430;-85
2023/03/23 11:35:21;;;;;;;0.70;0.70;;;18.80;94.70;;;;;;5076452;28;20411;-85
2023/03/23 11:37:52;;;;;;;1.43;0.70;;;19.00;94.60;;;;;;5076452;28;20434;-85
2023/03/23 11:40:22;;;;;;;0.90;0.70;;;19.20;94.40;;;;;;5075959;28;20968;-85
2023/03/23 11:42:50;;;;;;;1.23;0.63;;;19.40;94.00;;;;;;5076210;28;20782;-85
2023/03/23 11:45:22;;;;;;;1.30;1.20;;;19.60;93.90;;;;;;5076148;28;20480;-85
2023/03/23 11:47:59;;;;;;;1.40;0.70;;;19.60;93.40;;;;;;5075728;28;20494;-85
2023/03/23 11:50:30;;;;;;;0.90;0.60;;;19.70;94.00;;;;;;5075379;28;20487;-85
2023/03/23 11:53:03;;;;;;;0.50;0.50;;;19.60;93.30;;;;;;5076374;28;20487;-87
2023/03/23 11:55:37;;;;;;;1.50;0.77;;;19.50;93.30;;;;;;5081533;28;20441;-85
2023/03/23 11:58:13;;;;;;;0.67;0.67;;;19.60;93.10;;;;;;5083600;28;20903;-85
2023/03/23 12:00:45;;;;;;;6.80;0.70;;;19.40;92.80;;;;;;5079206;28;20442;-85
2023/03/23 12:03:16;;;;;;;1.10;0.70;;;19.20;93.30;;;;;;5078967;28;20537;-84
2023/03/23 12:05:50;;;;;;;1.00;0.67;;;19.10;93.10;;;;;;5079259;28;20421;-85
2023/03/23 12:08:30;;;;;;;0.70;0.70;;;19.10;93.40;;;;;;5078366;28;20444;-85
2023/03/23 12:11:07;;;;;;;0.80;0.60;;;19.00;93.30;;;;;;5079099;28;20465;-84
2023/03/23 12:13:53;;;;;;;1.23;0.60;;;18.90;93.40;;;;;;5078841;28;20438;-85
2023/03/23 12:16:30;;;;;;;0.90;0.80;;;18.80;93.00;;;;;;5078771;28;20415;-84
2023/03/23 12:19:03;;;;;;;0.50;0.50;;;18.60;93.60;;;;;;5078826;28;20976;-85
2023/03/23 12:21:39;;;;;;;0.90;0.70;;;18.60;93.60;;;;;;5079320;28;20463;-85
2023/03/23 12:24:16;;;;;;;0.77;0.70;;;18.70;93.70;;;;;;5079327;28;20430;-85
2023/03/23 12:26:51;;;;;;;0.70;0.70;;;18.80;93.80;;;;;;5078572;28;20437;-85
2023/03/23 12:29:33;;;;;;;1.00;0.73;;;18.80;93.90;;;;;;5079135;28;20487;-85
2023/03/23 12:32:24;;;;;;;0.50;0.50;;;18.70;93.30;;;;;;5078815;28;20422;-85
2023/03/23 12:34:58;;;;;;;1.33;0.70;;;18.70;92.90;;;;;;5078560;28;20423;-85
2023/03/23 12:37:38;;;;;;;0.50;0.50;;;18.60;93.40;;;;;;5078905;28;20430;-85
2023/03/23 12:40:39;;;;;;;0.50;0.50;;;18.80;93.20;;;;;;5078319;28;20992;-85
2023/03/23 12:43:16;;;;;;;1.43;0.90;;;18.90;92.70;;;;;;5079477;28;20449;-84
2023/03/23 12:46:16;;;;;;;0.93;0.80;;;18.90;93.20;;;;;;5079287;28;20477;-85
2023/03/23 12:48:47;;;;;;;1.27;0.70;;;19.00;93.10;;;;;;5045181;28;20489;-85
2023/03/23 12:51:22;;;;;;;0.60;0.60;;;19.00;92.70;;;;;;5078252;28;20487;-85
2023/03/23 12:53:54;;;;;;;0.40;0.30;;;18.90;93.00;;;;;;5078655;28;20442;-84
2023/03/23 12:56:26;;;;;;;5.60;0.80;;;19.00;93.30;;;;;;5078978;28;20788;-87
2023/03/23 12:59:14;;;;;;;1.27;0.50;;;19.10;93.30;;;;;;5077139;28;20515;-87
2023/03/23 13:01:45;;;;;;;1.23;0.80;;;19.20;92.70;;;;;;5074918;28;20442;-83